Time;durP1;ratioP1;P1;durP2;ratioP2;P2;SDS_P1;SDS_P2;PMS_P1;PMS_P2;Temp;Humidity;BMP_temperature;BMP_pressure;BME280_temperature;BME280_humidity;BME280_pressure;Samples;Min_cycle;Max_cycle;Signal;HPM_P1;HPM_P2
2023/05/29 00:01:51;;;;;;;6.28;1.05;;;;;;;12.72;86.97;101987.16;6202181;28;20062;-72
2023/05/29 00:04:52;;;;;;;9.20;1.85;;;;;;;12.73;85.81;101989.75;6200339;28;20414;-72
2023/05/29 00:07:54;;;;;;;2.70;1.00;;;;;;;12.61;86.78;101992.91;6201850;28;20049;-72
2023/05/29 00:10:55;;;;;;;10.38;3.00;;;;;;;12.55;87.66;101996.66;6201537;28;20054;-72
2023/05/29 00:13:58;;;;;;;5.72;1.33;;;;;;;12.51;86.21;101992.44;6201763;28;20050;-73
2023/05/29 00:16:59;;;;;;;5.47;1.85;;;;;;;12.47;87.35;101996.13;6201782;28;20046;-73
2023/05/29 00:20:02;;;;;;;4.43;1.33;;;;;;;12.47;88.03;101996.13;6201066;28;20355;-72
2023/05/29 00:23:05;;;;;;;2.85;0.88;;;;;;;12.56;88.47;102000.16;6201577;28;20057;-73
2023/05/29 00:26:07;;;;;;;9.57;1.27;;;;;;;12.55;87.71;101993.16;6201825;28;20137;-72
2023/05/29 00:29:10;;;;;;;5.75;1.20;;;;;;;12.52;88.25;102001.19;6177925;28;20469;-72
2023/05/29 00:32:11;;;;;;;7.00;1.73;;;;;;;12.47;87.72;102008.44;6178908;28;20440;-72
2023/05/29 00:35:13;;;;;;;12.25;1.90;;;;;;;12.46;89.62;102004.94;6193524;28;20051;-72
2023/05/29 00:38:14;;;;;;;7.70;1.83;;;;;;;12.47;90.06;102014.56;6177661;28;20458;-73
2023/05/29 00:41:16;;;;;;;11.73;2.35;;;;;;;12.37;89.60;102010.59;6176813;28;20066;-72
2023/05/29 00:44:19;;;;;;;6.10;1.33;;;;;;;12.38;90.25;101996.50;6177826;28;20051;-73
2023/05/29 00:47:21;;;;;;;9.10;1.83;;;;;;;12.35;89.51;102005.41;6201438;28;20047;-72
2023/05/29 00:50:24;;;;;;;9.20;1.65;;;;;;;12.23;91.41;102002.41;6191864;28;20062;-72
2023/05/29 00:53:26;;;;;;;2.20;0.95;;;;;;;12.30;91.69;101999.44;6177370;28;20448;-72
2023/05/29 00:56:28;;;;;;;8.20;1.60;;;;;;;12.31;91.47;102005.56;6176946;28;20066;-72
2023/05/29 00:59:32;;;;;;;8.93;1.58;;;;;;;12.30;91.73;102009.13;6176390;28;20051;-72
2023/05/29 01:02:36;;;;;;;10.75;1.75;;;;;;;12.25;92.17;102004.03;6178157;28;20051;-72
2023/05/29 01:05:37;;;;;;;4.38;1.42;;;;;;;12.18;92.82;102013.13;6196010;28;20617;-72
2023/05/29 01:08:38;;;;;;;12.23;1.58;;;;;;;12.15;93.08;102023.78;6201072;28;20039;-72
2023/05/29 01:11:50;;;;;;;7.95;1.38;;;;;;;12.15;93.30;102011.44;6196279;28;20150;-72
2023/05/29 01:15:05;;;;;;;6.22;1.35;;;;;;;12.02;93.80;102025.16;6192873;28;20078;-73
2023/05/29 01:18:13;;;;;;;6.22;1.40;;;;;;;12.02;94.95;102026.03;6192765;28;20054;-71
2023/05/29 01:21:24;;;;;;;9.63;1.63;;;;;;;12.05;94.58;102032.97;6192225;28;20055;-72
2023/05/29 01:24:30;;;;;;;8.95;1.45;;;;;;;12.22;94.65;102030.53;6181220;28;20105;-72
2023/05/29 01:27:33;;;;;;;10.43;1.35;;;;;;;12.09;93.00;102029.28;6200898;28;20466;-72
2023/05/29 01:30:35;;;;;;;6.75;1.20;;;;;;;12.07;93.92;102036.38;6203890;28;20454;-72
2023/05/29 01:33:40;;;;;;;3.78;1.35;;;;;;;12.10;95.19;102041.53;6204116;28;20058;-72
2023/05/29 01:36:41;;;;;;;7.78;1.30;;;;;;;12.07;93.96;102039.03;6197590;28;20042;-72
2023/05/29 01:39:43;;;;;;;4.93;1.50;;;;;;;12.04;94.90;102055.81;6204755;28;20058;-72
2023/05/29 01:42:46;;;;;;;10.60;1.33;;;;;;;12.13;95.51;102050.19;6205528;28;20057;-72
2023/05/29 01:45:47;;;;;;;11.90;1.90;;;;;;;12.05;96.49;102047.00;6205349;28;20458;-72
2023/05/29 01:48:50;;;;;;;5.13;1.83;;;;;;;12.12;96.21;102055.50;6204891;28;20053;-72
2023/05/29 01:51:51;;;;;;;10.75;2.05;;;;;;;12.13;96.20;102051.97;6205218;28;20046;-72
2023/05/29 01:54:52;;;;;;;3.80;1.55;;;;;;;12.08;94.33;102054.78;6205003;28;20355;-72
2023/05/29 01:57:56;;;;;;;8.02;1.88;;;;;;;11.96;94.59;102063.16;6197056;28;20068;-72
2023/05/29 02:00:58;;;;;;;12.73;1.90;;;;;;;11.87;95.62;102064.34;6204317;28;20050;-72
2023/05/29 02:04:00;;;;;;;5.55;1.63;;;;;;;11.88;95.46;102068.69;6203361;28;20061;-72
2023/05/29 02:07:01;;;;;;;6.85;1.83;;;;;;;11.80;93.72;102060.19;6204787;28;20053;-72
2023/05/29 02:10:02;;;;;;;8.55;1.67;;;;;;;11.68;94.97;102061.53;6204042;28;20058;-72
2023/05/29 02:13:05;;;;;;;10.02;1.50;;;;;;;11.60;96.89;102074.09;6204715;28;20057;-72
2023/05/29 02:16:07;;;;;;;7.15;1.73;;;;;;;11.68;94.71;102065.94;6204988;28;20054;-72
2023/05/29 02:19:08;;;;;;;12.15;2.00;;;;;;;11.57;96.16;102068.94;6203916;28;20046;-72
2023/05/29 02:22:09;;;;;;;5.20;1.13;;;;;;;11.58;95.65;102068.03;6204734;28;20054;-72
2023/05/29 02:25:11;;;;;;;8.93;1.33;;;;;;;11.47;96.70;102064.06;6204370;28;20155;-72
2023/05/29 02:28:13;;;;;;;8.05;1.13;;;;;;;11.49;97.43;102059.59;6204398;28;20053;-72
2023/05/29 02:31:15;;;;;;;8.10;1.38;;;;;;;11.53;95.74;102053.31;6203886;28;20049;-72
2023/05/29 02:34:16;;;;;;;9.30;1.48;;;;;;;11.42;95.44;102057.19;6185087;28;20400;-72
2023/05/29 02:37:17;;;;;;;6.13;1.70;;;;;;;11.40;95.44;102053.78;6180080;28;20367;-72
2023/05/29 02:40:20;;;;;;;8.48;1.23;;;;;;;11.38;96.71;102050.31;6178550;28;20047;-72
2023/05/29 02:43:23;;;;;;;8.18;1.40;;;;;;;11.41;95.42;102059.91;6204225;28;20050;-72
2023/05/29 02:46:24;;;;;;;11.25;1.38;;;;;;;11.36;95.67;102056.56;6203969;28;20054;-72
2023/05/29 02:49:25;;;;;;;4.88;1.00;;;;;;;11.36;95.42;102054.78;6203503;28;20046;-73
2023/05/29 02:52:27;;;;;;;5.00;1.40;;;;;;;11.24;95.25;102054.38;6195637;28;20447;-72
2023/05/29 02:55:35;;;;;;;8.32;1.20;;;;;;;11.22;98.36;102064.06;6203946;28;20046;-72
2023/05/29 02:58:38;;;;;;;11.10;2.57;;;;;;;11.26;95.58;102076.19;6201927;28;20050;-72
2023/05/29 03:01:39;;;;;;;4.78;1.40;;;;;;;11.11;96.66;102062.66;6202997;28;20050;-72
2023/05/29 03:04:41;;;;;;;3.88;0.75;;;;;;;11.12;95.99;102069.66;6200936;28;20050;-72
2023/05/29 03:07:42;;;;;;;8.82;1.25;;;;;;;11.15;95.48;102072.19;6203516;28;20355;-72
2023/05/29 03:10:44;;;;;;;7.22;1.10;;;;;;;11.20;94.47;102072.03;6201817;28;20077;-72
2023/05/29 03:13:49;;;;;;;5.45;1.00;;;;;;;11.13;94.84;102075.78;6194864;28;20141;-71
2023/05/29 03:16:50;;;;;;;7.68;1.17;;;;;;;11.14;94.40;102066.97;6198699;28;20141;-71
2023/05/29 03:19:51;;;;;;;9.00;2.45;;;;;;;11.23;93.17;102076.34;6199077;28;20332;-72
2023/05/29 03:22:53;;;;;;;6.25;1.08;;;;;;;11.19;92.86;102072.94;6202896;28;20367;-71
2023/05/29 03:25:54;;;;;;;6.72;1.30;;;;;;;11.26;91.86;102065.69;6203259;28;20057;-72
2023/05/29 03:28:57;;;;;;;5.75;1.90;;;;;;;11.18;90.45;102072.09;6201722;28;20050;-73
2023/05/29 03:31:58;;;;;;;6.18;1.67;;;;;;;11.15;90.25;102064.28;6203152;28;20065;-72
2023/05/29 03:35:01;;;;;;;6.45;1.33;;;;;;;11.15;91.68;102066.91;6202699;28;20371;-72
2023/05/29 03:38:02;;;;;;;5.18;1.00;;;;;;;11.21;91.64;102065.84;6188519;28;20137;-72
2023/05/29 03:41:03;;;;;;;15.38;3.13;;;;;;;11.20;90.30;102065.91;6200534;28;20450;-72
2023/05/29 03:44:06;;;;;;;8.35;1.00;;;;;;;11.09;90.86;102064.50;6202540;28;20046;-72
2023/05/29 03:47:08;;;;;;;7.32;1.30;;;;;;;11.07;91.21;102066.31;6202800;28;20058;-72
2023/05/29 03:50:11;;;;;;;5.80;1.23;;;;;;;11.01;90.97;102084.09;6199944;28;20042;-72
2023/05/29 03:53:12;;;;;;;8.18;1.42;;;;;;;11.02;91.61;102075.28;6202199;28;20093;-73
2023/05/29 03:56:14;;;;;;;12.10;1.67;;;;;;;10.98;93.03;102086.81;6197361;28;20046;-72
2023/05/29 03:59:16;;;;;;;9.15;2.05;;;;;;;10.94;90.08;102086.06;6171912;28;20038;-73
2023/05/29 04:02:18;;;;;;;8.32;1.33;;;;;;;10.93;91.99;102093.09;6157012;28;20061;-73
2023/05/29 04:05:19;;;;;;;8.90;1.42;;;;;;;10.96;91.56;102092.13;6158013;28;20072;-72
2023/05/29 04:08:20;;;;;;;15.10;1.42;;;;;;;10.80;90.90;102093.53;6162096;28;20050;-72
2023/05/29 04:11:22;;;;;;;7.60;1.33;;;;;;;10.74;92.17;102091.13;6173027;28;20049;-73
2023/05/29 04:14:24;;;;;;;6.05;0.95;;;;;;;10.72;92.38;102088.56;6182262;28;20050;-73
2023/05/29 04:17:26;;;;;;;6.95;1.45;;;;;;;10.69;91.63;102100.94;6181176;28;20054;-72
2023/05/29 04:20:28;;;;;;;4.35;0.98;;;;;;;10.66;92.48;102104.50;6181786;28;20149;-72
2023/05/29 04:23:29;;;;;;;9.50;2.28;;;;;;;10.73;92.83;102097.28;6182395;28;20458;-72
2023/05/29 04:26:32;;;;;;;8.98;2.30;;;;;;;10.80;92.05;102098.81;6180683;28;20046;-75
2023/05/29 04:29:35;;;;;;;5.80;1.17;;;;;;;10.80;91.66;102097.03;6181500;28;20129;-73
2023/05/29 04:32:36;;;;;;;7.45;1.23;;;;;;;10.79;92.71;102103.19;6184470;28;20571;-73
2023/05/29 04:35:38;;;;;;;7.82;1.35;;;;;;;10.79;90.79;102099.72;6180090;28;20546;-72
2023/05/29 04:38:39;;;;;;;3.38;1.08;;;;;;;10.70;93.32;102106.13;6179664;28;20049;-72
2023/05/29 04:41:41;;;;;;;5.40;1.45;;;;;;;10.71;93.09;102112.25;6182461;28;20046;-72
2023/05/29 04:44:44;;;;;;;2.38;1.10;;;;;;;10.70;92.98;102123.69;6174249;28;20043;-71
2023/05/29 04:47:45;;;;;;;9.32;1.10;;;;;;;10.64;93.20;102124.75;6173712;28;20164;-71
2023/05/29 04:50:48;;;;;;;10.80;1.77;;;;;;;10.75;91.37;102124.38;6170319;28;20050;-72
2023/05/29 04:53:51;;;;;;;9.57;1.55;;;;;;;10.68;90.40;102112.38;6170218;28;20073;-75
2023/05/29 04:56:52;;;;;;;10.10;2.15;;;;;;;10.57;91.25;102113.53;6169975;28;20109;-72
2023/05/29 04:59:55;;;;;;;8.63;1.23;;;;;;;10.44;90.72;102114.81;6192176;28;20134;-72
2023/05/29 05:02:57;;;;;;;10.00;2.20;;;;;;;10.49;91.99;102117.31;6194457;28;20046;-72
2023/05/29 05:05:58;;;;;;;6.68;1.30;;;;;;;10.49;89.60;102112.06;6205819;28;20058;-72
2023/05/29 05:08:59;;;;;;;8.25;1.23;;;;;;;10.48;89.32;102118.22;6205570;28;20100;-75
2023/05/29 05:12:01;;;;;;;5.40;0.95;;;;;;;10.45;90.21;102120.97;6205493;28;20061;-74
2023/05/29 05:15:05;;;;;;;8.48;1.67;;;;;;;10.49;89.39;102122.56;6197955;28;20050;-75
2023/05/29 05:18:06;;;;;;;7.50;1.67;;;;;;;10.49;89.48;102118.19;6204479;28;20072;-74
2023/05/29 05:21:07;;;;;;;13.45;1.63;;;;;;;10.54;89.57;102123.31;6197127;28;20428;-74
2023/05/29 05:24:09;;;;;;;4.78;0.95;;;;;;;10.54;87.68;102113.66;6205576;28;20062;-75
2023/05/29 05:27:10;;;;;;;6.80;1.20;;;;;;;10.58;90.30;102127.53;6205927;28;20050;-75
2023/05/29 05:30:14;;;;;;;3.50;1.00;;;;;;;10.59;88.40;102127.50;6205033;28;20046;-74
2023/05/29 05:33:15;;;;;;;7.03;1.67;;;;;;;10.71;87.58;102136.75;6205787;28;20054;-72
2023/05/29 05:36:16;;;;;;;7.78;1.85;;;;;;;10.71;86.06;102133.28;6205412;28;20363;-74
2023/05/29 05:39:18;;;;;;;5.88;1.98;;;;;;;10.74;89.22;102128.78;6180840;28;20058;-72
2023/05/29 05:42:19;;;;;;;8.25;2.03;;;;;;;10.82;87.45;102134.66;6181278;28;20058;-74
2023/05/29 05:45:22;;;;;;;8.32;1.77;;;;;;;10.90;86.19;102144.91;6181266;28;20341;-73
2023/05/29 05:48:23;;;;;;;12.82;1.42;;;;;;;10.87;86.77;102143.28;6203746;28;20061;-72
2023/05/29 05:51:25;;;;;;;11.32;1.85;;;;;;;10.97;83.96;102143.81;6204509;28;20058;-73
2023/05/29 05:54:26;;;;;;;9.10;1.73;;;;;;;11.01;84.98;102149.84;6205080;28;20654;-73
2023/05/29 05:57:28;;;;;;;5.03;1.55;;;;;;;10.96;83.83;102149.16;6205065;28;20200;-74
2023/05/29 06:00:31;;;;;;;6.35;0.82;;;;;;;10.96;82.99;102157.03;6204322;28;20354;-73
2023/05/29 06:03:33;;;;;;;10.05;1.70;;;;;;;10.88;83.47;102155.50;6204830;28;20058;-72
2023/05/29 06:06:34;;;;;;;9.27;1.20;;;;;;;10.89;83.08;102159.00;6205178;28;20050;-73
2023/05/29 06:09:35;;;;;;;4.10;0.98;;;;;;;10.88;83.15;102162.53;6199668;28;20465;-73
2023/05/29 06:12:37;;;;;;;12.77;1.30;;;;;;;10.94;84.47;102159.69;6196816;28;20046;-73
2023/05/29 06:15:40;;;;;;;7.22;0.90;;;;;;;10.99;84.78;102170.06;6199179;28;20443;-73
2023/05/29 06:18:41;;;;;;;7.20;1.38;;;;;;;11.06;83.04;102182.97;6193410;28;20050;-73
2023/05/29 06:21:42;;;;;;;5.85;1.23;;;;;;;11.06;82.88;102179.50;6201791;28;20042;-72
2023/05/29 06:24:44;;;;;;;3.90;0.98;;;;;;;11.13;82.00;102175.78;6195572;28;20046;-73
2023/05/29 06:27:45;;;;;;;7.82;1.73;;;;;;;11.16;82.28;102179.13;6198344;28;20404;-73
2023/05/29 06:30:48;;;;;;;9.82;2.10;;;;;;;11.13;81.46;102179.25;6195508;28;20495;-73
2023/05/29 06:33:50;;;;;;;7.55;0.95;;;;;;;11.05;83.11;102176.00;6204421;28;20367;-72
2023/05/29 06:36:51;;;;;;;6.47;1.45;;;;;;;11.16;82.70;102170.38;6204180;28;20061;-74
2023/05/29 06:39:53;;;;;;;4.78;1.48;;;;;;;11.25;81.76;102175.34;6182792;28;20054;-74
2023/05/29 06:42:54;;;;;;;9.07;1.15;;;;;;;11.30;82.09;102168.16;6179848;28;20372;-73
2023/05/29 06:45:57;;;;;;;5.90;0.90;;;;;;;11.34;81.78;102168.91;6188261;28;20057;-73
2023/05/29 06:48:58;;;;;;;12.18;2.45;;;;;;;11.38;79.80;102163.50;6179214;28;20058;-73
2023/05/29 06:51:59;;;;;;;7.88;1.73;;;;;;;11.42;82.91;102165.13;6180149;28;20054;-73
2023/05/29 06:55:01;;;;;;;13.63;1.20;;;;;;;11.50;83.44;102177.16;6179879;28;20178;-73
2023/05/29 06:58:02;;;;;;;9.48;1.75;;;;;;;11.59;81.92;102175.09;6179665;28;20058;-73
2023/05/29 07:01:05;;;;;;;9.13;1.85;;;;;;;11.73;81.51;102185.13;6195536;28;20058;-73
2023/05/29 07:04:07;;;;;;;15.18;1.42;;;;;;;11.69;80.44;102178.25;6195390;28;20107;-73
2023/05/29 07:07:08;;;;;;;6.55;1.52;;;;;;;11.75;80.10;102185.06;6200365;28;20390;-73
2023/05/29 07:10:11;;;;;;;9.52;1.73;;;;;;;11.85;81.95;102181.22;6194464;28;20073;-74
2023/05/29 07:13:16;;;;;;;9.65;1.75;;;;;;;11.87;81.67;102190.81;6195866;28;20360;-73
2023/05/29 07:16:18;;;;;;;17.10;1.65;;;;;;;11.95;80.43;102200.22;6197232;28;20057;-72
2023/05/29 07:19:20;;;;;;;5.63;1.77;;;;;;;12.02;80.90;102199.91;6191061;28;20077;-73
2023/05/29 07:22:21;;;;;;;7.30;1.83;;;;;;;12.00;79.12;102199.13;6201739;28;20058;-73
2023/05/29 07:25:22;;;;;;;5.55;1.42;;;;;;;12.02;78.52;102193.78;6195588;28;20053;-72
2023/05/29 07:28:24;;;;;;;5.18;0.98;;;;;;;12.05;79.09;102191.91;6194247;28;20051;-73
2023/05/29 07:31:26;;;;;;;5.15;1.15;;;;;;;12.08;80.60;102193.56;6202446;28;20057;-73
2023/05/29 07:34:28;;;;;;;4.47;1.20;;;;;;;12.15;79.60;102198.56;6194849;28;20051;-72
2023/05/29 07:37:30;;;;;;;10.55;1.92;;;;;;;12.10;79.76;102195.25;6201432;28;20061;-72
2023/05/29 07:40:31;;;;;;;7.65;1.52;;;;;;;12.12;80.79;102187.25;6195746;28;20133;-72
2023/05/29 07:43:32;;;;;;;8.63;1.88;;;;;;;12.12;81.08;102188.13;6201967;28;20050;-73
2023/05/29 07:46:35;;;;;;;6.38;1.02;;;;;;;12.18;80.22;102187.06;6192732;28;20055;-73
2023/05/29 07:49:36;;;;;;;8.20;1.40;;;;;;;12.22;80.08;102191.31;6199222;28;20053;-72
2023/05/29 07:52:38;;;;;;;8.00;2.33;;;;;;;12.27;77.89;102191.13;6197208;28;20050;-73
2023/05/29 07:55:39;;;;;;;13.10;1.35;;;;;;;12.28;80.52;102195.47;6202355;28;20061;-73
2023/05/29 07:58:41;;;;;;;10.80;1.45;;;;;;;12.30;79.26;102201.53;6202607;28;20046;-73
2023/05/29 08:01:44;;;;;;;8.35;1.48;;;;;;;12.34;78.27;102201.38;6201464;28;20177;-72
2023/05/29 08:04:46;;;;;;;8.52;2.42;;;;;;;12.36;79.17;102210.09;6202065;28;20108;-74
2023/05/29 08:07:48;;;;;;;7.53;2.03;;;;;;;12.32;76.68;102211.13;6197447;28;20051;-73
2023/05/29 08:10:49;;;;;;;8.68;1.83;;;;;;;12.37;75.64;102214.44;6196378;28;20054;-74
2023/05/29 08:13:51;;;;;;;7.68;1.30;;;;;;;12.36;76.08;102206.59;6201164;28;20050;-73
2023/05/29 08:16:53;;;;;;;10.55;1.30;;;;;;;12.43;77.15;102208.06;6200620;28;20046;-74
2023/05/29 08:19:55;;;;;;;10.20;1.40;;;;;;;12.39;78.03;102209.97;6188520;28;20423;-72
2023/05/29 08:22:56;;;;;;;7.95;1.17;;;;;;;12.50;77.68;102216.63;6193576;28;20051;-73
2023/05/29 08:25:57;;;;;;;7.35;1.70;;;;;;;12.58;74.95;102210.16;6192580;28;20057;-73
2023/05/29 08:28:59;;;;;;;7.47;1.52;;;;;;;12.62;74.74;102211.72;6183654;28;20047;-72
2023/05/29 08:32:02;;;;;;;12.23;1.58;;;;;;;12.66;72.71;102212.47;6189851;28;20065;-71
2023/05/29 08:35:04;;;;;;;8.45;1.50;;;;;;;12.65;75.37;102211.63;6193590;28;20050;-71
2023/05/29 08:38:06;;;;;;;3.70;1.27;;;;;;;12.75;79.77;102211.25;6189107;28;20439;-71
2023/05/29 08:41:08;;;;;;;7.28;1.88;;;;;;;12.86;77.83;102215.22;6199099;28;20355;-70
2023/05/29 08:44:14;;;;;;;13.63;1.70;;;;;;;12.93;79.33;102219.31;6196592;28;20059;-70
2023/05/29 08:47:20;;;;;;;8.90;1.48;;;;;;;13.03;77.09;102217.16;6193066;28;20363;-70
2023/05/29 08:50:23;;;;;;;5.55;1.08;;;;;;;13.10;76.07;102216.00;6199268;28;20056;-70
2023/05/29 08:53:25;;;;;;;4.88;1.38;;;;;;;13.18;76.87;102216.56;6193030;28;20472;-70
2023/05/29 08:56:27;;;;;;;8.57;1.63;;;;;;;13.26;75.34;102223.31;6201285;28;20046;-71
2023/05/29 08:59:30;;;;;;;13.68;1.42;;;;;;;13.23;73.47;102224.31;6200644;28;20046;-70
2023/05/29 09:02:35;;;;;;;8.55;1.20;;;;;;;13.37;74.23;102221.97;6182975;28;20069;-71
2023/05/29 09:05:39;;;;;;;6.72;1.75;;;;;;;13.39;73.05;102219.25;6181541;28;20046;-72
2023/05/29 09:08:41;;;;;;;9.57;1.58;;;;;;;13.40;71.57;102219.22;6199582;28;20042;-73
2023/05/29 09:11:44;;;;;;;6.95;1.67;;;;;;;13.47;71.61;102232.16;6199470;28;20050;-73
2023/05/29 09:14:47;;;;;;;7.50;1.95;;;;;;;13.53;71.05;102216.91;6199464;28;20050;-72
2023/05/29 09:17:53;;;;;;;7.75;1.38;;;;;;;13.62;71.56;102216.50;6193941;28;20328;-72
2023/05/29 09:20:55;;;;;;;5.03;1.45;;;;;;;13.71;72.16;102224.03;6186775;28;20365;-72
2023/05/29 09:24:04;;;;;;;5.47;1.50;;;;;;;13.77;72.45;102206.22;6195192;28;20363;-72
2023/05/29 09:27:07;;;;;;;6.35;1.40;;;;;;;13.83;70.20;102216.53;6187394;28;20071;-73
2023/05/29 09:30:11;;;;;;;12.95;1.83;;;;;;;13.83;68.94;102221.81;6192150;28;20046;-72
2023/05/29 09:33:15;;;;;;;6.32;1.20;;;;;;;13.85;71.11;102215.53;6192043;28;20057;-72
2023/05/29 09:36:23;;;;;;;8.98;1.73;;;;;;;13.96;67.64;102194.78;6195741;28;20053;-72
2023/05/29 09:39:25;;;;;;;7.60;1.40;;;;;;;14.06;68.21;102208.44;6190487;28;20436;-72
2023/05/29 09:42:26;;;;;;;10.13;2.03;;;;;;;14.11;68.70;102213.53;6191943;28;20487;-71
2023/05/29 09:45:28;;;;;;;4.38;1.00;;;;;;;14.10;65.61;102210.03;6190943;28;20046;-72
2023/05/29 09:48:31;;;;;;;7.68;1.58;;;;;;;14.24;65.43;102203.25;6187847;28;20073;-71
2023/05/29 09:51:32;;;;;;;13.13;1.30;;;;;;;14.32;67.87;102206.41;6190804;28;20045;-71
2023/05/29 09:54:36;;;;;;;5.82;1.20;;;;;;;14.41;66.42;102208.63;6201151;28;20057;-72
2023/05/29 09:57:38;;;;;;;8.50;1.65;;;;;;;14.50;66.62;102202.09;6196779;28;20435;-72
2023/05/29 10:00:40;;;;;;;4.20;1.08;;;;;;;14.52;67.08;102203.72;6203720;28;20069;-72
2023/05/29 10:03:43;;;;;;;12.15;1.75;;;;;;;14.59;68.08;102209.63;6205172;28;20058;-72
2023/05/29 10:06:48;;;;;;;6.50;1.60;;;;;;;14.57;68.65;102204.38;6204982;28;20133;-73
2023/05/29 10:09:55;;;;;;;8.73;1.13;;;;;;;14.62;67.97;102207.66;6200113;28;20367;-72
2023/05/29 10:12:57;;;;;;;5.78;1.35;;;;;;;14.72;66.67;102210.75;6180735;28;20054;-73
2023/05/29 10:16:01;;;;;;;4.22;1.83;;;;;;;14.79;65.41;102214.81;6180913;28;20057;-72
2023/05/29 10:19:07;;;;;;;11.35;1.85;;;;;;;14.85;65.41;102218.94;6181043;28;20055;-72
2023/05/29 10:22:10;;;;;;;6.78;1.42;;;;;;;14.85;67.46;102213.66;6180604;28;20182;-71
2023/05/29 10:25:14;;;;;;;5.32;1.50;;;;;;;14.91;68.07;102206.28;6180341;28;20046;-72
2023/05/29 10:28:16;;;;;;;11.57;1.85;;;;;;;14.92;66.06;102192.13;6180641;28;20050;-71
2023/05/29 10:31:23;;;;;;;10.88;1.98;;;;;;;15.02;67.34;102195.16;6179585;28;20046;-74
2023/05/29 10:34:32;;;;;;;4.25;1.40;;;;;;;15.14;63.59;102193.72;6180315;28;20055;-75
2023/05/29 10:37:38;;;;;;;12.23;1.73;;;;;;;15.19;61.29;102191.69;6180293;28;20054;-72
2023/05/29 10:40:39;;;;;;;3.53;1.25;;;;;;;15.32;62.41;102190.16;6179627;28;20051;-74
2023/05/29 10:43:43;;;;;;;4.53;1.55;;;;;;;15.40;63.53;102179.19;6191054;28;20066;-74
2023/05/29 10:47:05;;;;;;;2.22;0.70;;;;;;;15.48;61.28;102185.78;6204360;28;20074;-74
2023/05/29 10:50:07;;;;;;;9.35;1.23;;;;;;;15.45;63.91;102183.31;6186864;28;20508;-75
2023/05/29 10:53:10;;;;;;;2.67;0.98;;;;;;;15.52;62.79;102172.38;6203069;28;20050;-74
2023/05/29 10:56:17;;;;;;;10.38;1.83;;;;;;;15.63;62.94;102165.63;6203868;28;20129;-73
2023/05/29 10:59:19;;;;;;;6.95;1.30;;;;;;;15.82;59.24;102169.97;6203292;28;20061;-69
2023/05/29 11:02:23;;;;;;;8.85;1.45;;;;;;;15.82;57.82;102170.84;6202624;28;20050;-73
2023/05/29 11:05:26;;;;;;;5.20;1.17;;;;;;;15.87;58.36;102170.59;6203535;28;20359;-73
2023/05/29 11:08:34;;;;;;;5.95;1.65;;;;;;;15.87;59.23;102165.28;6203599;28;20467;-75
2023/05/29 11:11:37;;;;;;;2.50;1.10;;;;;;;15.93;63.49;102163.16;6202752;28;20046;-72
2023/05/29 11:14:47;;;;;;;10.40;1.65;;;;;;;16.16;63.56;102147.81;6203525;28;20054;-73
2023/05/29 11:17:50;;;;;;;;;;;;;;;16.26;60.82;102153.47;6191633;28;20392;-71
2023/05/29 11:20:58;;;;;;;6.53;1.27;;;;;;;16.32;56.88;102158.44;6195721;28;20314;-74
2023/05/29 11:24:02;;;;;;;4.78;1.17;;;;;;;16.59;57.36;102148.09;6193394;28;20046;-73
2023/05/29 11:27:07;;;;;;;5.28;1.10;;;;;;;16.74;55.57;102150.78;6197323;28;20051;-74
2023/05/29 11:30:10;;;;;;;4.00;1.02;;;;;;;16.88;56.13;102151.78;6201317;28;20101;-74
2023/05/29 11:33:24;;;;;;;8.25;2.03;;;;;;;16.92;56.95;102153.31;6201970;28;20355;-72
2023/05/29 11:36:28;;;;;;;7.10;1.45;;;;;;;16.96;56.00;102154.84;6201861;28;20046;-73
2023/05/29 11:39:30;;;;;;;4.55;1.20;;;;;;;17.03;55.68;102156.19;6189736;28;20137;-70
2023/05/29 11:42:32;;;;;;;5.57;1.30;;;;;;;17.08;53.28;102163.91;6198006;28;20057;-73
2023/05/29 11:45:34;;;;;;;7.07;1.40;;;;;;;17.36;56.92;102158.69;6192777;28;20053;-73
2023/05/29 11:48:45;;;;;;;2.83;1.10;;;;;;;17.45;51.00;102151.97;6194833;28;20050;-74
2023/05/29 11:51:48;;;;;;;6.75;1.33;;;;;;;17.60;59.72;102158.19;6194633;28;20202;-73
2023/05/29 11:54:50;;;;;;;5.85;1.50;;;;;;;17.73;52.36;102160.03;6195742;28;20057;-72
2023/05/29 11:57:56;;;;;;;4.90;1.77;;;;;;;17.87;50.23;102158.34;6195092;28;20050;-72
2023/05/29 12:00:57;;;;;;;7.20;1.02;;;;;;;17.96;51.28;102145.31;6190356;28;20046;-72
2023/05/29 12:03:59;;;;;;;5.55;1.00;;;;;;;18.06;51.59;102148.25;6196650;28;20060;-73
2023/05/29 12:07:02;;;;;;;4.88;1.20;;;;;;;18.06;48.63;102142.09;6199750;28;20054;-73
2023/05/29 12:10:10;;;;;;;7.95;1.73;;;;;;;18.17;54.81;102134.28;6196384;28;20082;-72
2023/05/29 12:13:12;;;;;;;11.40;1.90;;;;;;;18.38;48.41;102137.38;6197372;28;20059;-71
2023/05/29 12:16:13;;;;;;;3.45;0.95;;;;;;;18.67;51.48;102133.69;6199739;28;20046;-72
2023/05/29 12:19:14;;;;;;;4.72;1.50;;;;;;;18.89;48.39;102141.16;6192218;28;20375;-72
2023/05/29 12:22:17;;;;;;;10.75;2.05;;;;;;;18.89;47.15;102141.16;6177524;28;20054;-72
2023/05/29 12:25:20;;;;;;;6.55;1.50;;;;;;;18.83;46.02;102136.22;6177922;28;20059;-72
2023/05/29 12:28:22;;;;;;;6.18;1.83;;;;;;;18.86;45.39;102144.03;6177552;28;20194;-73
2023/05/29 12:31:28;;;;;;;8.05;1.77;;;;;;;18.87;43.53;102132.41;6184889;28;20051;-73
2023/05/29 12:34:36;;;;;;;4.72;1.05;;;;;;;18.92;45.63;102138.28;6177582;28;20082;-72
2023/05/29 12:37:42;;;;;;;4.90;1.83;;;;;;;19.23;47.62;102137.09;6196219;28;20129;-72
2023/05/29 12:40:49;;;;;;;5.57;1.40;;;;;;;19.50;43.96;102126.34;6200636;28;20359;-72
2023/05/29 12:43:53;;;;;;;4.95;1.25;;;;;;;19.52;40.33;102132.41;6193767;28;20186;-74
2023/05/29 12:46:57;;;;;;;4.85;1.17;;;;;;;19.50;43.60;102133.50;6195114;28;20042;-73
2023/05/29 12:49:58;;;;;;;3.92;1.40;;;;;;;19.61;44.77;102135.44;6195667;28;20047;-69
2023/05/29 12:53:03;;;;;;;7.97;1.35;;;;;;;19.79;47.83;102133.31;6194668;28;20046;-70
2023/05/29 12:56:04;;;;;;;5.20;1.52;;;;;;;19.82;44.25;102133.97;6197419;28;20057;-69
2023/05/29 12:59:05;;;;;;;6.70;1.55;;;;;;;19.71;43.95;102124.06;6194119;28;20444;-70
2023/05/29 13:02:07;;;;;;;8.80;1.65;;;;;;;19.57;45.00;102121.44;6199396;28;20050;-69
2023/05/29 13:05:09;;;;;;;4.50;1.00;;;;;;;19.53;46.30;102117.31;6201017;28;20132;-70
2023/05/29 13:08:12;;;;;;;5.60;1.63;;;;;;;19.66;43.75;102126.16;6201103;28;20058;-70
2023/05/29 13:11:13;;;;;;;4.03;0.90;;;;;;;19.91;44.78;102122.63;6200414;28;20062;-70
2023/05/29 13:14:15;;;;;;;6.50;1.00;;;;;;;20.06;43.33;102131.38;6200957;28;20050;-70
2023/05/29 13:17:17;;;;;;;4.82;1.08;;;;;;;20.06;41.64;102122.50;6199597;28;20431;-71
2023/05/29 13:20:18;;;;;;;4.07;0.75;;;;;;;19.91;45.79;102122.63;6200283;28;20054;-71
2023/05/29 13:23:21;;;;;;;8.02;1.10;;;;;;;20.09;45.70;102130.31;6176838;28;20050;-70
2023/05/29 13:26:22;;;;;;;3.90;1.20;;;;;;;19.98;41.73;102136.38;6180151;28;20107;-71
2023/05/29 13:29:24;;;;;;;7.03;2.20;;;;;;;20.06;42.56;102130.50;6181559;28;20074;-71
2023/05/29 13:32:25;;;;;;;3.40;1.45;;;;;;;20.12;45.41;102138.94;6205690;28;20050;-71
2023/05/29 13:35:26;;;;;;;5.65;1.80;;;;;;;20.37;44.04;102126.50;6205546;28;20369;-70
2023/05/29 13:38:29;;;;;;;4.55;1.27;;;;;;;20.51;43.53;102132.56;6205648;28;20061;-71
2023/05/29 13:41:31;;;;;;;8.38;1.98;;;;;;;20.57;47.08;102125.06;6204740;28;20062;-71
2023/05/29 13:44:32;;;;;;;5.97;1.48;;;;;;;20.55;45.55;102127.84;6205578;28;20057;-67
2023/05/29 13:47:34;;;;;;;8.38;2.20;;;;;;;20.56;43.64;102123.34;6193741;28;20062;-70
2023/05/29 13:50:35;;;;;;;7.25;1.38;;;;;;;20.60;43.06;102125.69;6180766;28;20440;-70
2023/05/29 13:53:38;;;;;;;7.47;2.10;;;;;;;20.48;42.50;102121.22;6181105;28;20047;-70
2023/05/29 13:56:39;;;;;;;6.82;1.50;;;;;;;20.42;41.22;102117.16;6186799;28;20042;-70
2023/05/29 13:59:40;;;;;;;7.45;1.42;;;;;;;20.62;44.63;102106.88;6202639;28;20137;-70
2023/05/29 14:02:42;;;;;;;2.75;1.20;;;;;;;20.58;41.07;102113.44;6186314;28;20046;-70
2023/05/29 14:05:44;;;;;;;7.80;1.42;;;;;;;20.10;42.82;102110.66;6196696;28;20054;-70
2023/05/29 14:08:46;;;;;;;3.45;1.50;;;;;;;20.32;44.27;102112.63;6187473;28;20055;-69